sensor_id;sensor_type;location;lat;lon;timestamp;temperature;humidity
85164;DHT22;75530;49.300;6.846;2024-03-02T00:00:14;26.00;99.90
85164;DHT22;75530;49.300;6.846;2024-03-02T00:03:15;25.70;99.90
85164;DHT22;75530;49.300;6.846;2024-03-02T00:06:18;25.50;99.90
85164;DHT22;75530;49.300;6.846;2024-03-02T00:09:19;25.30;99.90
85164;DHT22;75530;49.300;6.846;2024-03-02T00:12:20;25.10;99.90
85164;DHT22;75530;49.300;6.846;2024-03-02T00:18:25;24.80;99.90
85164;DHT22;75530;49.300;6.846;2024-03-02T00:21:26;24.60;99.90
85164;DHT22;75530;49.300;6.846;2024-03-02T00:24:31;24.40;99.90
85164;DHT22;75530;49.300;6.846;2024-03-02T00:27:33;24.20;99.90
85164;DHT22;75530;49.300;6.846;2024-03-02T00:33:43;23.90;99.90
85164;DHT22;75530;49.300;6.846;2024-03-02T00:36:44;23.80;99.90
85164;DHT22;75530;49.300;6.846;2024-03-02T00:39:48;23.60;99.90
85164;DHT22;75530;49.300;6.846;2024-03-02T00:42:49;23.50;99.90
85164;DHT22;75530;49.300;6.846;2024-03-02T00:45:49;23.40;99.90
85164;DHT22;75530;49.300;6.846;2024-03-02T00:48:57;23.30;99.90
85164;DHT22;75530;49.300;6.846;2024-03-02T00:51:57;23.10;99.90
85164;DHT22;75530;49.300;6.846;2024-03-02T00:54:59;23.00;99.90
85164;DHT22;75530;49.300;6.846;2024-03-02T00:57:59;22.90;99.90
85164;DHT22;75530;49.300;6.846;2024-03-02T01:00:59;22.80;99.90
85164;DHT22;75530;49.300;6.846;2024-03-02T01:04:00;22.70;99.90
85164;DHT22;75530;49.300;6.846;2024-03-02T01:07:00;22.60;99.90
85164;DHT22;75530;49.300;6.846;2024-03-02T01:10:01;22.50;99.90
85164;DHT22;75530;49.300;6.846;2024-03-02T01:13:01;22.40;99.90
85164;DHT22;75530;49.300;6.846;2024-03-02T01:16:02;22.30;99.90
85164;DHT22;75530;49.300;6.846;2024-03-02T01:19:04;22.20;99.90
85164;DHT22;75530;49.300;6.846;2024-03-02T01:22:04;22.10;99.90
85164;DHT22;75530;49.300;6.846;2024-03-02T01:25:05;22.00;99.90
85164;DHT22;75530;49.300;6.846;2024-03-02T01:28:05;22.00;99.90
85164;DHT22;75530;49.300;6.846;2024-03-02T01:31:06;21.90;99.90
85164;DHT22;75530;49.300;6.846;2024-03-02T01:34:06;21.80;99.90
85164;DHT22;75530;49.300;6.846;2024-03-02T01:37:07;21.70;99.90
85164;DHT22;75530;49.300;6.846;2024-03-02T01:40:07;24.50;99.90
85164;DHT22;75530;49.300;6.846;2024-03-02T01:43:09;32.10;99.90
85164;DHT22;75530;49.300;6.846;2024-03-02T01:46:09;39.00;99.90
85164;DHT22;75530;49.300;6.846;2024-03-02T01:49:10;40.90;99.90
85164;DHT22;75530;49.300;6.846;2024-03-02T01:52:10;39.20;99.90
85164;DHT22;75530;49.300;6.846;2024-03-02T01:55:11;38.30;99.90
85164;DHT22;75530;49.300;6.846;2024-03-02T01:58:12;37.40;99.90
85164;DHT22;75530;49.300;6.846;2024-03-02T02:01:12;36.60;99.90
85164;DHT22;75530;49.300;6.846;2024-03-02T02:04:12;35.80;99.90
85164;DHT22;75530;49.300;6.846;2024-03-02T02:07:13;35.10;99.90
85164;DHT22;75530;49.300;6.846;2024-03-02T02:10:14;34.40;99.90
85164;DHT22;75530;49.300;6.846;2024-03-02T02:13:15;33.70;99.90
85164;DHT22;75530;49.300;6.846;2024-03-02T02:16:15;33.10;99.90
85164;DHT22;75530;49.300;6.846;2024-03-02T02:19:16;32.50;99.90
85164;DHT22;75530;49.300;6.846;2024-03-02T02:22:16;32.00;99.90
85164;DHT22;75530;49.300;6.846;2024-03-02T02:25:16;31.50;99.90
85164;DHT22;75530;49.300;6.846;2024-03-02T02:28:17;30.90;99.90
85164;DHT22;75530;49.300;6.846;2024-03-02T02:31:17;30.50;99.90
85164;DHT22;75530;49.300;6.846;2024-03-02T02:34:18;30.00;99.90
85164;DHT22;75530;49.300;6.846;2024-03-02T02:37:18;29.60;99.90
85164;DHT22;75530;49.300;6.846;2024-03-02T02:40:19;29.20;99.90
85164;DHT22;75530;49.300;6.846;2024-03-02T02:43:19;28.80;99.90
85164;DHT22;75530;49.300;6.846;2024-03-02T02:46:20;28.50;99.90
85164;DHT22;75530;49.300;6.846;2024-03-02T02:49:20;28.10;99.90
85164;DHT22;75530;49.300;6.846;2024-03-02T02:52:20;27.80;99.90
85164;DHT22;75530;49.300;6.846;2024-03-02T02:55:21;27.50;99.90
85164;DHT22;75530;49.300;6.846;2024-03-02T02:58:22;27.20;99.90
85164;DHT22;75530;49.300;6.846;2024-03-02T03:01:22;26.90;99.90
85164;DHT22;75530;49.300;6.846;2024-03-02T03:04:22;26.70;99.90
85164;DHT22;75530;49.300;6.846;2024-03-02T03:07:23;26.40;99.90
85164;DHT22;75530;49.300;6.846;2024-03-02T03:10:23;26.10;99.90
85164;DHT22;75530;49.300;6.846;2024-03-02T03:13:26;25.90;99.90
85164;DHT22;75530;49.300;6.846;2024-03-02T03:16:26;25.70;99.90
85164;DHT22;75530;49.300;6.846;2024-03-02T03:19:27;25.40;99.90
85164;DHT22;75530;49.300;6.846;2024-03-02T03:22:27;25.30;99.90
85164;DHT22;75530;49.300;6.846;2024-03-02T03:25:28;25.00;99.90
85164;DHT22;75530;49.300;6.846;2024-03-02T03:28:28;24.80;99.90
85164;DHT22;75530;49.300;6.846;2024-03-02T03:31:29;24.70;99.90
85164;DHT22;75530;49.300;6.846;2024-03-02T03:34:29;24.50;99.90
85164;DHT22;75530;49.300;6.846;2024-03-02T03:37:30;24.30;99.90
85164;DHT22;75530;49.300;6.846;2024-03-02T03:40:33;24.20;99.90
85164;DHT22;75530;49.300;6.846;2024-03-02T03:43:34;24.00;99.90
85164;DHT22;75530;49.300;6.846;2024-03-02T03:46:35;23.80;99.90
85164;DHT22;75530;49.300;6.846;2024-03-02T03:49:36;23.70;99.90
85164;DHT22;75530;49.300;6.846;2024-03-02T03:52:36;23.50;99.90
85164;DHT22;75530;49.300;6.846;2024-03-02T03:55:37;23.40;99.90
85164;DHT22;75530;49.300;6.846;2024-03-02T03:58:37;23.20;99.90
85164;DHT22;75530;49.300;6.846;2024-03-02T04:01:37;23.10;99.90
85164;DHT22;75530;49.300;6.846;2024-03-02T04:04:38;23.00;99.90
85164;DHT22;75530;49.300;6.846;2024-03-02T04:07:38;22.90;99.90
85164;DHT22;75530;49.300;6.846;2024-03-02T04:10:40;22.80;99.90
85164;DHT22;75530;49.300;6.846;2024-03-02T04:13:42;22.70;99.90
85164;DHT22;75530;49.300;6.846;2024-03-02T04:16:42;22.50;99.90
85164;DHT22;75530;49.300;6.846;2024-03-02T04:19:43;22.50;99.90
85164;DHT22;75530;49.300;6.846;2024-03-02T04:22:43;22.30;99.90
85164;DHT22;75530;49.300;6.846;2024-03-02T04:25:44;22.30;99.90
85164;DHT22;75530;49.300;6.846;2024-03-02T04:28:44;22.20;99.90
85164;DHT22;75530;49.300;6.846;2024-03-02T04:31:44;22.10;99.90
85164;DHT22;75530;49.300;6.846;2024-03-02T04:34:45;22.00;99.90
85164;DHT22;75530;49.300;6.846;2024-03-02T04:37:45;21.90;99.90
85164;DHT22;75530;49.300;6.846;2024-03-02T04:40:46;25.30;99.90
85164;DHT22;75530;49.300;6.846;2024-03-02T04:43:46;33.80;99.90
85164;DHT22;75530;49.300;6.846;2024-03-02T04:46:47;40.60;99.90
85164;DHT22;75530;49.300;6.846;2024-03-02T04:49:47;37.20;99.90
85164;DHT22;75530;49.300;6.846;2024-03-02T04:52:48;35.80;99.90
85164;DHT22;75530;49.300;6.846;2024-03-02T04:55:48;35.10;99.90
85164;DHT22;75530;49.300;6.846;2024-03-02T04:59:24;34.50;99.90
85164;DHT22;75530;49.300;6.846;2024-03-02T05:02:25;33.80;99.90
85164;DHT22;75530;49.300;6.846;2024-03-02T05:05:25;33.20;99.90
85164;DHT22;75530;49.300;6.846;2024-03-02T05:08:26;37.30;99.90
85164;DHT22;75530;49.300;6.846;2024-03-02T05:11:27;40.90;99.90
85164;DHT22;75530;49.300;6.846;2024-03-02T05:14:50;39.40;99.90
85164;DHT22;75530;49.300;6.846;2024-03-02T05:17:51;38.50;99.90
85164;DHT22;75530;49.300;6.846;2024-03-02T05:20:51;37.70;99.90
85164;DHT22;75530;49.300;6.846;2024-03-02T05:23:52;37.00;99.90
85164;DHT22;75530;49.300;6.846;2024-03-02T05:26:52;36.20;99.90
85164;DHT22;75530;49.300;6.846;2024-03-02T05:29:53;35.50;99.90
85164;DHT22;75530;49.300;6.846;2024-03-02T05:32:53;34.80;99.90
85164;DHT22;75530;49.300;6.846;2024-03-02T05:35:54;34.20;99.90
85164;DHT22;75530;49.300;6.846;2024-03-02T05:38:54;33.50;99.90
85164;DHT22;75530;49.300;6.846;2024-03-02T05:41:55;33.70;99.90
85164;DHT22;75530;49.300;6.846;2024-03-02T05:44:55;40.00;99.90
85164;DHT22;75530;49.300;6.846;2024-03-02T05:47:56;40.00;99.90
85164;DHT22;75530;49.300;6.846;2024-03-02T05:50:56;38.80;99.90
85164;DHT22;75530;49.300;6.846;2024-03-02T05:53:57;38.10;99.90
85164;DHT22;75530;49.300;6.846;2024-03-02T05:56:57;37.20;99.90
85164;DHT22;75530;49.300;6.846;2024-03-02T06:00:16;36.50;99.90
85164;DHT22;75530;49.300;6.846;2024-03-02T06:03:17;35.70;99.90
85164;DHT22;75530;49.300;6.846;2024-03-02T06:06:17;35.00;99.90
85164;DHT22;75530;49.300;6.846;2024-03-02T06:09:18;34.40;99.90
85164;DHT22;75530;49.300;6.846;2024-03-02T06:12:20;33.80;99.90
85164;DHT22;75530;49.300;6.846;2024-03-02T06:15:20;33.20;99.90
85164;DHT22;75530;49.300;6.846;2024-03-02T06:18:21;37.80;99.90
85164;DHT22;75530;49.300;6.846;2024-03-02T06:21:21;40.50;99.90
85164;DHT22;75530;49.300;6.846;2024-03-02T06:24:22;38.90;99.90
85164;DHT22;75530;49.300;6.846;2024-03-02T06:27:22;38.10;99.90
85164;DHT22;75530;49.300;6.846;2024-03-02T06:30:22;37.30;99.90
85164;DHT22;75530;49.300;6.846;2024-03-02T06:33:23;36.60;99.90
85164;DHT22;75530;49.300;6.846;2024-03-02T06:36:23;35.80;99.90
85164;DHT22;75530;49.300;6.846;2024-03-02T06:39:24;35.10;99.90
85164;DHT22;75530;49.300;6.846;2024-03-02T06:42:26;34.40;99.90
85164;DHT22;75530;49.300;6.846;2024-03-02T06:45:26;33.80;99.90
85164;DHT22;75530;49.300;6.846;2024-03-02T06:48:30;33.30;99.90
85164;DHT22;75530;49.300;6.846;2024-03-02T06:51:30;38.50;99.90
85164;DHT22;75530;49.300;6.846;2024-03-02T06:54:31;40.40;99.90
85164;DHT22;75530;49.300;6.846;2024-03-02T06:57:31;38.80;99.90
85164;DHT22;75530;49.300;6.846;2024-03-02T07:00:31;38.00;99.90
85164;DHT22;75530;49.300;6.846;2024-03-02T07:03:32;37.30;99.90
85164;DHT22;75530;49.300;6.846;2024-03-02T07:06:33;36.60;99.90
85164;DHT22;75530;49.300;6.846;2024-03-02T07:09:33;38.60;99.90
85164;DHT22;75530;49.300;6.846;2024-03-02T07:12:34;50.40;99.90
85164;DHT22;75530;49.300;6.846;2024-03-02T07:15:34;56.20;99.90
85164;DHT22;75530;49.300;6.846;2024-03-02T07:19:10;55.30;99.90
85164;DHT22;75530;49.300;6.846;2024-03-02T07:22:10;52.60;99.90
85164;DHT22;75530;49.300;6.846;2024-03-02T07:25:12;51.60;99.90
85164;DHT22;75530;49.300;6.846;2024-03-02T07:28:12;55.90;99.90
85164;DHT22;75530;49.300;6.846;2024-03-02T07:31:14;56.10;99.90
85164;DHT22;75530;49.300;6.846;2024-03-02T07:34:15;54.30;99.90
85164;DHT22;75530;49.300;6.846;2024-03-02T07:37:16;52.30;99.90
85164;DHT22;75530;49.300;6.846;2024-03-02T07:40:17;51.30;99.90
85164;DHT22;75530;49.300;6.846;2024-03-02T07:43:17;55.40;99.90
85164;DHT22;75530;49.300;6.846;2024-03-02T07:46:18;56.90;99.90
85164;DHT22;75530;49.300;6.846;2024-03-02T07:49:18;48.00;99.90
85164;DHT22;75530;49.300;6.846;2024-03-02T07:52:19;42.60;99.90
85164;DHT22;75530;49.300;6.846;2024-03-02T07:55:19;40.90;99.90
85164;DHT22;75530;49.300;6.846;2024-03-02T07:58:20;39.80;99.90
85164;DHT22;75530;49.300;6.846;2024-03-02T08:01:21;38.80;99.90
85164;DHT22;75530;49.300;6.846;2024-03-02T08:04:22;37.80;99.90
85164;DHT22;75530;49.300;6.846;2024-03-02T08:07:23;37.00;99.90
85164;DHT22;75530;49.300;6.846;2024-03-02T08:10:23;36.10;99.90
85164;DHT22;75530;49.300;6.846;2024-03-02T08:13:24;35.40;99.90
85164;DHT22;75530;49.300;6.846;2024-03-02T08:16:24;34.70;99.90
85164;DHT22;75530;49.300;6.846;2024-03-02T08:19:25;34.10;99.90
85164;DHT22;75530;49.300;6.846;2024-03-02T08:22:26;33.50;99.90
85164;DHT22;75530;49.300;6.846;2024-03-02T08:25:26;33.40;99.90
85164;DHT22;75530;49.300;6.846;2024-03-02T08:28:27;40.40;99.90
85164;DHT22;75530;49.300;6.846;2024-03-02T08:31:27;40.50;99.90
85164;DHT22;75530;49.300;6.846;2024-03-02T08:34:28;38.20;99.90
85164;DHT22;75530;49.300;6.846;2024-03-02T08:37:28;37.40;99.90
85164;DHT22;75530;49.300;6.846;2024-03-02T08:40:29;36.80;99.90
85164;DHT22;75530;49.300;6.846;2024-03-02T08:43:29;36.10;99.90
85164;DHT22;75530;49.300;6.846;2024-03-02T08:46:30;35.40;99.90
85164;DHT22;75530;49.300;6.846;2024-03-02T08:49:30;34.70;99.90
85164;DHT22;75530;49.300;6.846;2024-03-02T08:52:31;34.10;99.90
85164;DHT22;75530;49.300;6.846;2024-03-02T08:55:31;33.40;99.90
85164;DHT22;75530;49.300;6.846;2024-03-02T08:58:32;32.90;99.90
85164;DHT22;75530;49.300;6.846;2024-03-02T09:01:32;38.70;99.90
85164;DHT22;75530;49.300;6.846;2024-03-02T09:04:33;41.00;99.90
85164;DHT22;75530;49.300;6.846;2024-03-02T09:07:33;38.40;99.90
85164;DHT22;75530;49.300;6.846;2024-03-02T09:10:34;37.40;99.90
85164;DHT22;75530;49.300;6.846;2024-03-02T09:13:35;36.70;99.90
85164;DHT22;75530;49.300;6.846;2024-03-02T09:16:35;36.00;99.90
85164;DHT22;75530;49.300;6.846;2024-03-02T09:19:36;35.30;99.90
85164;DHT22;75530;49.300;6.846;2024-03-02T09:22:36;34.60;99.90
85164;DHT22;75530;49.300;6.846;2024-03-02T09:25:36;34.00;99.90
85164;DHT22;75530;49.300;6.846;2024-03-02T09:28:37;33.40;99.90
85164;DHT22;75530;49.300;6.846;2024-03-02T09:31:41;32.90;99.90
85164;DHT22;75530;49.300;6.846;2024-03-02T09:34:41;32.40;99.90
85164;DHT22;75530;49.300;6.846;2024-03-02T09:37:42;35.00;99.90
85164;DHT22;75530;49.300;6.846;2024-03-02T09:40:42;41.60;99.90
85164;DHT22;75530;49.300;6.846;2024-03-02T09:43:43;39.30;99.90
85164;DHT22;75530;49.300;6.846;2024-03-02T09:46:44;38.10;99.90
85164;DHT22;75530;49.300;6.846;2024-03-02T09:49:45;37.70;99.90
85164;DHT22;75530;49.300;6.846;2024-03-02T09:52:49;37.20;99.90
85164;DHT22;75530;49.300;6.846;2024-03-02T09:55:52;36.70;99.90
85164;DHT22;75530;49.300;6.846;2024-03-02T09:58:52;36.10;99.90
85164;DHT22;75530;49.300;6.846;2024-03-02T10:01:59;35.60;99.90
85164;DHT22;75530;49.300;6.846;2024-03-02T10:05:00;35.10;99.90
85164;DHT22;75530;49.300;6.846;2024-03-02T10:08:01;34.50;99.90
85164;DHT22;75530;49.300;6.846;2024-03-02T10:11:02;34.00;99.90
85164;DHT22;75530;49.300;6.846;2024-03-02T10:14:09;33.50;99.90
85164;DHT22;75530;49.300;6.846;2024-03-02T10:17:11;33.10;99.90
85164;DHT22;75530;49.300;6.846;2024-03-02T10:20:20;32.60;99.90
85164;DHT22;75530;49.300;6.846;2024-03-02T10:23:21;32.20;99.90
85164;DHT22;75530;49.300;6.846;2024-03-02T10:26:21;31.80;99.90
85164;DHT22;75530;49.300;6.846;2024-03-02T10:29:22;31.40;99.90
85164;DHT22;75530;49.300;6.846;2024-03-02T10:32:23;35.20;99.90
85164;DHT22;75530;49.300;6.846;2024-03-02T10:35:23;41.20;99.90
85164;DHT22;75530;49.300;6.846;2024-03-02T10:38:23;38.60;99.90
85164;DHT22;75530;49.300;6.846;2024-03-02T10:41:26;37.50;99.90
85164;DHT22;75530;49.300;6.846;2024-03-02T10:44:26;37.10;99.90
85164;DHT22;75530;49.300;6.846;2024-03-02T10:47:27;36.50;99.90
85164;DHT22;75530;49.300;6.846;2024-03-02T10:50:30;36.00;99.90
85164;DHT22;75530;49.300;6.846;2024-03-02T10:53:30;35.40;99.90
85164;DHT22;75530;49.300;6.846;2024-03-02T10:56:32;34.90;99.90
85164;DHT22;75530;49.300;6.846;2024-03-02T10:59:33;34.40;99.90
85164;DHT22;75530;49.300;6.846;2024-03-02T11:02:34;33.90;99.90
85164;DHT22;75530;49.300;6.846;2024-03-02T11:05:43;33.50;99.90
85164;DHT22;75530;49.300;6.846;2024-03-02T11:08:44;33.00;99.90
85164;DHT22;75530;49.300;6.846;2024-03-02T11:11:49;32.60;99.90
85164;DHT22;75530;49.300;6.846;2024-03-02T11:14:54;32.10;99.90
85164;DHT22;75530;49.300;6.846;2024-03-02T11:17:55;31.70;99.90
85164;DHT22;75530;49.300;6.846;2024-03-02T11:20:57;31.40;99.90
85164;DHT22;75530;49.300;6.846;2024-03-02T11:23:58;30.90;99.90
85164;DHT22;75530;49.300;6.846;2024-03-02T11:26:59;30.70;99.90
85164;DHT22;75530;49.300;6.846;2024-03-02T11:30:00;30.30;99.90
85164;DHT22;75530;49.300;6.846;2024-03-02T11:33:01;29.90;99.90
85164;DHT22;75530;49.300;6.846;2024-03-02T11:36:07;30.30;99.90
85164;DHT22;75530;49.300;6.846;2024-03-02T11:39:08;38.80;99.90
85164;DHT22;75530;49.300;6.846;2024-03-02T11:42:09;40.40;99.90
85164;DHT22;75530;49.300;6.846;2024-03-02T11:45:10;37.80;99.90
85164;DHT22;75530;49.300;6.846;2024-03-02T11:48:13;37.30;99.90
85164;DHT22;75530;49.300;6.846;2024-03-02T11:51:14;36.90;99.90
85164;DHT22;75530;49.300;6.846;2024-03-02T11:54:14;36.50;99.90
85164;DHT22;75530;49.300;6.846;2024-03-02T11:57:16;36.00;99.90
85164;DHT22;75530;49.300;6.846;2024-03-02T12:00:17;35.50;99.90
85164;DHT22;75530;49.300;6.846;2024-03-02T12:03:18;35.00;99.90
85164;DHT22;75530;49.300;6.846;2024-03-02T12:06:20;34.50;99.90
85164;DHT22;75530;49.300;6.846;2024-03-02T12:09:21;34.00;99.90
85164;DHT22;75530;49.300;6.846;2024-03-02T12:12:22;33.60;99.90
85164;DHT22;75530;49.300;6.846;2024-03-02T12:15:24;33.10;99.90
85164;DHT22;75530;49.300;6.846;2024-03-02T12:18:25;32.70;99.90
85164;DHT22;75530;49.300;6.846;2024-03-02T12:21:25;32.20;99.90
85164;DHT22;75530;49.300;6.846;2024-03-02T12:24:27;31.80;99.90
85164;DHT22;75530;49.300;6.846;2024-03-02T12:27:27;31.30;99.90
85164;DHT22;75530;49.300;6.846;2024-03-02T12:30:32;30.80;99.90
85164;DHT22;75530;49.300;6.846;2024-03-02T12:33:35;30.30;99.90
85164;DHT22;75530;49.300;6.846;2024-03-02T12:36:39;29.80;99.90
85164;DHT22;75530;49.300;6.846;2024-03-02T12:39:39;29.30;99.90
85164;DHT22;75530;49.300;6.846;2024-03-02T12:42:40;28.90;99.90
85164;DHT22;75530;49.300;6.846;2024-03-02T12:45:42;34.10;99.90
85164;DHT22;75530;49.300;6.846;2024-03-02T12:48:42;40.70;99.90
85164;DHT22;75530;49.300;6.846;2024-03-02T12:51:43;37.70;99.90
85164;DHT22;75530;49.300;6.846;2024-03-02T12:54:43;36.60;99.90
85164;DHT22;75530;49.300;6.846;2024-03-02T12:57:44;36.10;99.90
85164;DHT22;75530;49.300;6.846;2024-03-02T13:00:44;35.50;99.90
85164;DHT22;75530;49.300;6.846;2024-03-02T13:03:45;34.90;99.90
85164;DHT22;75530;49.300;6.846;2024-03-02T13:06:48;34.30;99.90
85164;DHT22;75530;49.300;6.846;2024-03-02T13:09:52;33.60;99.90
85164;DHT22;75530;49.300;6.846;2024-03-02T13:12:52;33.10;99.90
85164;DHT22;75530;49.300;6.846;2024-03-02T13:15:56;32.50;99.90
85164;DHT22;75530;49.300;6.846;2024-03-02T13:18:56;32.00;99.90
85164;DHT22;75530;49.300;6.846;2024-03-02T13:21:57;31.40;99.90
85164;DHT22;75530;49.300;6.846;2024-03-02T13:24:58;31.00;99.90
85164;DHT22;75530;49.300;6.846;2024-03-02T13:28:00;30.50;99.90
85164;DHT22;75530;49.300;6.846;2024-03-02T13:31:00;30.10;99.90
85164;DHT22;75530;49.300;6.846;2024-03-02T13:34:01;29.70;99.90
85164;DHT22;75530;49.300;6.846;2024-03-02T13:37:01;29.40;99.90
85164;DHT22;75530;49.300;6.846;2024-03-02T13:40:02;30.50;99.90
85164;DHT22;75530;49.300;6.846;2024-03-02T13:43:04;38.30;99.90
85164;DHT22;75530;49.300;6.846;2024-03-02T13:46:05;39.10;99.90
85164;DHT22;75530;49.300;6.846;2024-03-02T13:49:06;36.60;99.90
85164;DHT22;75530;49.300;6.846;2024-03-02T13:52:07;35.90;99.90
85164;DHT22;75530;49.300;6.846;2024-03-02T13:55:11;35.30;99.90
85164;DHT22;75530;49.300;6.846;2024-03-02T13:58:11;34.70;99.90
85164;DHT22;75530;49.300;6.846;2024-03-02T14:01:12;34.10;99.90
85164;DHT22;75530;49.300;6.846;2024-03-02T14:04:12;33.50;99.90
85164;DHT22;75530;49.300;6.846;2024-03-02T14:07:13;33.00;99.90
85164;DHT22;75530;49.300;6.846;2024-03-02T14:10:13;32.40;99.90
85164;DHT22;75530;49.300;6.846;2024-03-02T14:13:15;31.80;99.90
85164;DHT22;75530;49.300;6.846;2024-03-02T14:16:16;31.30;99.90
85164;DHT22;75530;49.300;6.846;2024-03-02T14:19:16;30.80;99.90
85164;DHT22;75530;49.300;6.846;2024-03-02T14:22:17;30.40;99.90
85164;DHT22;75530;49.300;6.846;2024-03-02T14:25:18;29.90;99.90
85164;DHT22;75530;49.300;6.846;2024-03-02T14:28:19;29.50;99.90
85164;DHT22;75530;49.300;6.846;2024-03-02T14:31:20;29.10;99.90
85164;DHT22;75530;49.300;6.846;2024-03-02T14:34:21;32.10;99.90
85164;DHT22;75530;49.300;6.846;2024-03-02T14:37:22;40.40;99.90
85164;DHT22;75530;49.300;6.846;2024-03-02T14:40:22;38.20;99.90
85164;DHT22;75530;49.300;6.846;2024-03-02T14:43:25;36.60;99.90
85164;DHT22;75530;49.300;6.846;2024-03-02T14:46:26;35.80;99.90
85164;DHT22;75530;49.300;6.846;2024-03-02T14:49:26;35.10;99.90
85164;DHT22;75530;49.300;6.846;2024-03-02T14:52:27;34.30;99.90
85164;DHT22;75530;49.300;6.846;2024-03-02T14:55:27;33.70;99.90
85164;DHT22;75530;49.300;6.846;2024-03-02T14:58:28;33.10;99.90
85164;DHT22;75530;49.300;6.846;2024-03-02T15:01:28;32.60;99.90
85164;DHT22;75530;49.300;6.846;2024-03-02T15:04:29;32.10;99.90
85164;DHT22;75530;49.300;6.846;2024-03-02T15:07:29;31.50;99.90
85164;DHT22;75530;49.300;6.846;2024-03-02T15:10:30;31.00;99.90
85164;DHT22;75530;49.300;6.846;2024-03-02T15:13:30;30.50;99.90
85164;DHT22;75530;49.300;6.846;2024-03-02T15:16:31;30.10;99.90
85164;DHT22;75530;49.300;6.846;2024-03-02T15:19:31;29.60;99.90
85164;DHT22;75530;49.300;6.846;2024-03-02T15:22:32;29.20;99.90
85164;DHT22;75530;49.300;6.846;2024-03-02T15:25:33;29.90;99.90
85164;DHT22;75530;49.300;6.846;2024-03-02T15:28:33;38.30;99.90
85164;DHT22;75530;49.300;6.846;2024-03-02T15:31:33;39.50;99.90
85164;DHT22;75530;49.300;6.846;2024-03-02T15:34:34;37.00;99.90
85164;DHT22;75530;49.300;6.846;2024-03-02T15:37:34;36.10;99.90
85164;DHT22;75530;49.300;6.846;2024-03-02T15:40:35;35.40;99.90
85164;DHT22;75530;49.300;6.846;2024-03-02T15:43:35;34.60;99.90
85164;DHT22;75530;49.300;6.846;2024-03-02T15:46:39;33.90;99.90
85164;DHT22;75530;49.300;6.846;2024-03-02T15:49:39;33.30;99.90
85164;DHT22;75530;49.300;6.846;2024-03-02T15:52:40;32.70;99.90
85164;DHT22;75530;49.300;6.846;2024-03-02T15:55:41;32.10;99.90
85164;DHT22;75530;49.300;6.846;2024-03-02T15:58:41;31.60;99.90
85164;DHT22;75530;49.300;6.846;2024-03-02T16:01:42;31.10;99.90
85164;DHT22;75530;49.300;6.846;2024-03-02T16:04:43;30.60;99.90
85164;DHT22;75530;49.300;6.846;2024-03-02T16:07:43;30.20;99.90
85164;DHT22;75530;49.300;6.846;2024-03-02T16:10:44;29.70;99.90
85164;DHT22;75530;49.300;6.846;2024-03-02T16:13:44;33.20;99.90
85164;DHT22;75530;49.300;6.846;2024-03-02T16:16:45;40.80;99.90
85164;DHT22;75530;49.300;6.846;2024-03-02T16:19:45;38.20;99.90
85164;DHT22;75530;49.300;6.846;2024-03-02T16:22:47;36.70;99.90
85164;DHT22;75530;49.300;6.846;2024-03-02T16:25:48;36.10;99.90
85164;DHT22;75530;49.300;6.846;2024-03-02T16:28:48;35.30;99.90
85164;DHT22;75530;49.300;6.846;2024-03-02T16:31:49;34.60;99.90
85164;DHT22;75530;49.300;6.846;2024-03-02T16:34:49;33.90;99.90
85164;DHT22;75530;49.300;6.846;2024-03-02T16:37:49;33.30;99.90
85164;DHT22;75530;49.300;6.846;2024-03-02T16:40:50;32.60;99.90
85164;DHT22;75530;49.300;6.846;2024-03-02T16:43:50;32.00;99.90
85164;DHT22;75530;49.300;6.846;2024-03-02T16:46:51;31.40;99.90
85164;DHT22;75530;49.300;6.846;2024-03-02T16:49:51;30.90;99.90
85164;DHT22;75530;49.300;6.846;2024-03-02T16:52:52;30.40;99.90
85164;DHT22;75530;49.300;6.846;2024-03-02T16:55:52;33.30;99.90
85164;DHT22;75530;49.300;6.846;2024-03-02T16:58:53;41.00;99.90
85164;DHT22;75530;49.300;6.846;2024-03-02T17:01:53;38.60;99.90
85164;DHT22;75530;49.300;6.846;2024-03-02T17:04:54;37.00;99.90
85164;DHT22;75530;49.300;6.846;2024-03-02T17:07:55;36.30;99.90
85164;DHT22;75530;49.300;6.846;2024-03-02T17:10:55;35.60;99.90
85164;DHT22;75530;49.300;6.846;2024-03-02T17:13:55;35.00;99.90
85164;DHT22;75530;49.300;6.846;2024-03-02T17:16:57;34.20;99.90
85164;DHT22;75530;49.300;6.846;2024-03-02T17:19:58;33.60;99.90
85164;DHT22;75530;49.300;6.846;2024-03-02T17:22:59;32.90;99.90
85164;DHT22;75530;49.300;6.846;2024-03-02T17:25:59;32.30;99.90
85164;DHT22;75530;49.300;6.846;2024-03-02T17:29:00;31.80;99.90
85164;DHT22;75530;49.300;6.846;2024-03-02T17:32:00;31.20;99.90
85164;DHT22;75530;49.300;6.846;2024-03-02T17:35:00;32.70;99.90
85164;DHT22;75530;49.300;6.846;2024-03-02T17:38:01;40.80;99.90
85164;DHT22;75530;49.300;6.846;2024-03-02T17:41:01;39.00;99.90
85164;DHT22;75530;49.300;6.846;2024-03-02T17:44:04;37.20;99.90
85164;DHT22;75530;49.300;6.846;2024-03-02T17:47:04;36.50;99.90
85164;DHT22;75530;49.300;6.846;2024-03-02T17:50:05;35.70;99.90
85164;DHT22;75530;49.300;6.846;2024-03-02T17:53:06;35.10;99.90
85164;DHT22;75530;49.300;6.846;2024-03-02T17:56:08;34.30;99.90
85164;DHT22;75530;49.300;6.846;2024-03-02T17:59:09;33.70;99.90
85164;DHT22;75530;49.300;6.846;2024-03-02T18:02:09;33.00;99.90
85164;DHT22;75530;49.300;6.846;2024-03-02T18:05:10;32.40;99.90
85164;DHT22;75530;49.300;6.846;2024-03-02T18:08:10;31.80;99.90
85164;DHT22;75530;49.300;6.846;2024-03-02T18:11:15;33.30;99.90
85164;DHT22;75530;49.300;6.846;2024-03-02T18:14:16;41.00;99.90
85164;DHT22;75530;49.300;6.846;2024-03-02T18:17:16;39.00;99.90
85164;DHT22;75530;49.300;6.846;2024-03-02T18:20:17;37.30;99.90
85164;DHT22;75530;49.300;6.846;2024-03-02T18:23:17;36.60;99.90
85164;DHT22;75530;49.300;6.846;2024-03-02T18:26:18;36.00;99.90
85164;DHT22;75530;49.300;6.846;2024-03-02T18:29:18;35.20;99.90
85164;DHT22;75530;49.300;6.846;2024-03-02T18:32:19;34.50;99.90
85164;DHT22;75530;49.300;6.846;2024-03-02T18:35:19;33.90;99.90
85164;DHT22;75530;49.300;6.846;2024-03-02T18:38:19;33.20;99.90
85164;DHT22;75530;49.300;6.846;2024-03-02T18:41:20;32.60;99.90
85164;DHT22;75530;49.300;6.846;2024-03-02T18:44:20;32.00;99.90
85164;DHT22;75530;49.300;6.846;2024-03-02T18:47:21;34.00;99.90
85164;DHT22;75530;49.300;6.846;2024-03-02T18:50:21;41.30;99.90
85164;DHT22;75530;49.300;6.846;2024-03-02T18:53:22;39.00;99.90
85164;DHT22;75530;49.300;6.846;2024-03-02T18:56:22;37.40;99.90
85164;DHT22;75530;49.300;6.846;2024-03-02T18:59:23;36.80;99.90
85164;DHT22;75530;49.300;6.846;2024-03-02T19:02:24;36.10;99.90
85164;DHT22;75530;49.300;6.846;2024-03-02T19:05:28;35.40;99.90
85164;DHT22;75530;49.300;6.846;2024-03-02T19:08:29;34.70;99.90